createdAt,value
2019-05-19T00:00:21.781Z,13.59
2019-05-19T00:01:19.205Z,13.58
2019-05-19T00:02:21.777Z,13.58
2019-05-19T00:03:19.184Z,13.58
2019-05-19T00:04:19.174Z,13.55
2019-05-19T00:05:19.276Z,13.56
2019-05-19T00:06:19.163Z,13.59
2019-05-19T00:07:19.141Z,13.62
2019-05-19T00:08:19.129Z,13.61
2019-05-19T00:09:19.124Z,13.59
2019-05-19T00:10:19.474Z,13.56
2019-05-19T00:11:19.905Z,13.55
2019-05-19T00:12:19.094Z,13.52
2019-05-19T00:13:19.075Z,13.52
2019-05-19T00:14:19.094Z,13.46
2019-05-19T00:15:19.059Z,13.30
2019-05-19T00:16:19.175Z,13.11
2019-05-19T00:17:19.125Z,12.87
2019-05-19T00:18:19.026Z,12.66
2019-05-19T00:19:26.870Z,12.52
2019-05-19T00:20:19.994Z,12.44
2019-05-19T00:21:19.505Z,12.38
2019-05-19T00:22:18.974Z,12.34
2019-05-19T00:23:19.013Z,12.34
2019-05-19T00:24:18.974Z,12.33
2019-05-19T00:25:18.953Z,12.29
2019-05-19T00:26:18.942Z,12.33
2019-05-19T00:27:18.925Z,12.42
2019-05-19T00:28:18.913Z,12.51
2019-05-19T00:29:18.944Z,12.60
2019-05-19T00:30:18.903Z,12.67
2019-05-19T00:31:18.883Z,12.77
2019-05-19T00:32:18.872Z,12.85
2019-05-19T00:33:18.854Z,12.92
2019-05-19T00:34:18.848Z,12.93
2019-05-19T00:35:18.885Z,12.93
2019-05-19T00:36:19.678Z,12.95
2019-05-19T00:37:18.813Z,12.95
2019-05-19T00:38:18.803Z,12.96
2019-05-19T00:39:18.793Z,13.00
2019-05-19T00:40:19.062Z,13.04
2019-05-19T00:41:18.804Z,13.07
2019-05-19T00:42:18.753Z,13.11
2019-05-19T00:43:18.743Z,13.11
2019-05-19T00:44:18.759Z,13.09
2019-05-19T00:45:18.725Z,13.04
2019-05-19T00:46:18.720Z,13.02
2019-05-19T00:47:19.772Z,12.99
2019-05-19T00:48:18.702Z,12.99
2019-05-19T00:49:18.685Z,12.97
2019-05-19T00:50:18.672Z,12.96
2019-05-19T00:51:18.672Z,12.93
2019-05-19T00:52:18.651Z,12.88
2019-05-19T00:53:18.672Z,12.88
2019-05-19T00:54:18.912Z,12.87
2019-05-19T00:55:18.621Z,12.88
2019-05-19T00:56:18.602Z,12.87
2019-05-19T00:57:18.592Z,12.84
2019-05-19T00:58:18.607Z,12.87
2019-05-19T00:59:18.601Z,12.88
2019-05-19T01:00:18.555Z,12.92
2019-05-19T01:01:18.673Z,12.92
2019-05-19T01:02:18.551Z,12.93
2019-05-19T01:03:18.533Z,12.92
2019-05-19T01:04:18.521Z,12.88
2019-05-19T01:05:20.701Z,12.87
2019-05-19T01:06:18.491Z,12.88
2019-05-19T01:07:18.762Z,12.87
2019-05-19T01:08:18.482Z,12.89
2019-05-19T01:09:18.511Z,12.85
2019-05-19T01:10:18.451Z,12.81
2019-05-19T01:11:18.491Z,12.79
2019-05-19T01:12:18.432Z,12.77
2019-05-19T01:13:18.412Z,12.75
2019-05-19T01:14:18.698Z,12.71
2019-05-19T01:15:18.392Z,12.56
2019-05-19T01:16:18.382Z,12.30
2019-05-19T01:17:18.412Z,12.05
2019-05-19T01:18:18.362Z,11.87
2019-05-19T01:19:18.357Z,11.74
2019-05-19T01:20:18.341Z,11.71
2019-05-19T01:21:18.352Z,11.70
2019-05-19T01:22:18.322Z,11.71
2019-05-19T01:23:18.390Z,11.72
2019-05-19T01:24:18.308Z,11.77
2019-05-19T01:25:18.294Z,11.80
2019-05-19T01:26:18.290Z,11.85
2019-05-19T01:27:18.560Z,11.93
2019-05-19T01:28:18.269Z,12.01
2019-05-19T01:29:18.280Z,11.97
2019-05-19T01:30:20.806Z,12.02
2019-05-19T01:31:18.242Z,12.05
2019-05-19T01:32:18.211Z,12.05
2019-05-19T01:33:18.201Z,11.99
2019-05-19T01:34:18.480Z,11.90
2019-05-19T01:35:18.226Z,11.71
2019-05-19T01:36:18.178Z,11.57
2019-05-19T01:37:18.160Z,11.50
2019-05-19T01:38:18.152Z,11.41
2019-05-19T01:39:18.151Z,11.41
2019-05-19T01:40:18.150Z,11.38
2019-05-19T01:41:18.200Z,11.35
2019-05-19T01:42:18.824Z,11.35
2019-05-19T01:43:18.100Z,11.41
2019-05-19T01:44:18.091Z,11.50
2019-05-19T01:45:18.079Z,11.57
2019-05-19T01:46:19.354Z,11.64
2019-05-19T01:47:18.109Z,11.70
2019-05-19T01:48:18.050Z,11.74
2019-05-19T01:49:18.037Z,11.78
2019-05-19T01:50:18.742Z,11.85
2019-05-19T01:51:18.017Z,11.89
2019-05-19T01:52:18.529Z,11.96
2019-05-19T01:53:18.029Z,12.05
2019-05-19T01:54:17.979Z,12.12
2019-05-19T01:55:17.977Z,12.16
2019-05-19T01:56:17.973Z,12.21
2019-05-19T01:57:17.964Z,12.21
2019-05-19T01:58:17.960Z,12.21
2019-05-19T01:59:17.969Z,12.21
2019-05-19T02:01:33.695Z,12.21
2019-05-19T02:02:33.662Z,12.21
2019-05-19T02:03:33.652Z,12.24
2019-05-19T02:04:33.953Z,12.27
2019-05-19T02:05:33.632Z,12.30
2019-05-19T02:06:33.611Z,12.29
2019-05-19T02:07:33.628Z,12.27
2019-05-19T02:08:33.590Z,12.30
2019-05-19T02:09:33.582Z,12.30
2019-05-19T02:10:34.422Z,12.30
2019-05-19T02:11:33.856Z,12.30
2019-05-19T02:12:33.562Z,12.31
2019-05-19T02:13:33.530Z,12.30
2019-05-19T02:14:33.528Z,12.27
2019-05-19T02:15:33.513Z,12.27
2019-05-19T02:16:34.012Z,12.26
2019-05-19T02:17:33.497Z,12.26
2019-05-19T02:18:33.794Z,12.26
2019-05-19T02:19:33.473Z,12.26
2019-05-19T02:20:33.997Z,12.23
2019-05-19T02:21:33.469Z,12.26
2019-05-19T02:22:33.525Z,12.26
2019-05-19T02:23:33.429Z,12.26
2019-05-19T02:24:33.424Z,12.26
2019-05-19T02:25:33.728Z,12.26
2019-05-19T02:26:33.409Z,12.24
2019-05-19T02:27:33.389Z,12.15
2019-05-19T02:28:33.420Z,12.11
2019-05-19T02:29:33.394Z,12.08
2019-05-19T02:30:33.357Z,12.09
2019-05-19T02:31:33.358Z,12.09
2019-05-19T02:32:33.363Z,12.06
2019-05-19T02:33:35.881Z,12.01
2019-05-19T02:34:33.360Z,11.99
2019-05-19T02:35:33.299Z,12.02
2019-05-19T02:36:33.302Z,12.04
2019-05-19T02:37:33.562Z,12.09
2019-05-19T02:38:33.280Z,12.13
2019-05-19T02:39:33.258Z,12.16
2019-05-19T02:40:33.288Z,12.15
2019-05-19T02:41:33.239Z,12.06
2019-05-19T02:42:33.243Z,11.96
2019-05-19T02:43:33.218Z,11.83
2019-05-19T02:44:33.213Z,11.82
2019-05-19T02:45:33.198Z,11.85
2019-05-19T02:46:33.227Z,11.93
2019-05-19T02:47:33.178Z,11.97
2019-05-19T02:48:33.169Z,12.01
2019-05-19T02:49:33.436Z,11.97
2019-05-19T02:50:50.492Z,11.93
2019-05-19T02:51:34.225Z,11.94
2019-05-19T02:52:33.122Z,11.94
2019-05-19T02:53:33.107Z,11.90
2019-05-19T02:54:33.879Z,11.89
2019-05-19T02:55:33.088Z,11.89
2019-05-19T02:56:33.081Z,11.93
2019-05-19T02:57:33.139Z,11.96
2019-05-19T02:58:33.068Z,11.97
2019-05-19T02:59:33.048Z,12.01
2019-05-19T03:00:33.038Z,12.02
2019-05-19T03:01:33.417Z,11.99
2019-05-19T03:02:33.028Z,11.99
2019-05-19T03:03:33.040Z,11.97
2019-05-19T03:04:33.498Z,11.99
2019-05-19T03:05:32.987Z,11.99
2019-05-19T03:06:32.987Z,11.90
2019-05-19T03:07:32.974Z,11.89
2019-05-19T03:08:32.969Z,11.94
2019-05-19T03:09:32.990Z,11.97
2019-05-19T03:10:32.944Z,11.99
2019-05-19T03:11:32.928Z,12.01
2019-05-19T03:12:32.907Z,12.04
2019-05-19T03:13:33.383Z,11.97
2019-05-19T03:14:32.905Z,11.93
2019-05-19T03:15:32.924Z,11.85
2019-05-19T03:16:32.893Z,11.82
2019-05-19T03:17:32.868Z,11.78
2019-05-19T03:18:32.848Z,11.77
2019-05-19T03:19:32.856Z,11.78
2019-05-19T03:20:33.106Z,11.80
2019-05-19T03:21:32.845Z,11.86
2019-05-19T03:22:32.805Z,11.87
2019-05-19T03:23:32.795Z,11.87
2019-05-19T03:24:32.788Z,11.89
2019-05-19T03:25:32.793Z,11.89
2019-05-19T03:26:32.804Z,11.87
2019-05-19T03:27:33.282Z,11.85
2019-05-19T03:28:32.745Z,11.83
2019-05-19T03:29:32.728Z,11.85
2019-05-19T03:30:32.738Z,11.78
2019-05-19T03:31:32.744Z,11.74
2019-05-19T03:32:32.725Z,11.71
2019-05-19T03:33:33.021Z,11.67
2019-05-19T03:34:32.704Z,11.68
2019-05-19T03:35:32.799Z,11.71
2019-05-19T03:36:32.655Z,11.75
2019-05-19T03:37:32.645Z,11.75
2019-05-19T03:38:32.635Z,11.74
2019-05-19T03:39:32.662Z,11.71
2019-05-19T03:40:32.922Z,11.67
2019-05-19T03:41:32.613Z,11.64
2019-05-19T03:42:32.595Z,11.61
2019-05-19T03:43:32.584Z,11.56
2019-05-19T03:44:32.572Z,11.53
2019-05-19T03:45:32.608Z,11.49
2019-05-19T03:46:32.543Z,11.47
2019-05-19T03:47:32.824Z,11.46
2019-05-19T03:48:32.523Z,11.47
2019-05-19T03:49:32.518Z,11.52
2019-05-19T03:50:32.503Z,11.57
2019-05-19T03:51:32.542Z,11.50
2019-05-19T03:52:32.483Z,11.39
2019-05-19T03:53:32.473Z,11.31
2019-05-19T03:54:32.754Z,11.21
2019-05-19T03:55:32.453Z,11.16
2019-05-19T03:56:32.446Z,11.17
2019-05-19T03:57:32.482Z,11.19
2019-05-19T03:58:32.422Z,11.11
2019-05-19T03:59:32.413Z,10.99
2019-05-19T04:00:32.403Z,10.92
2019-05-19T04:01:32.696Z,10.89
2019-05-19T04:02:32.382Z,10.83
2019-05-19T04:03:32.422Z,10.83
2019-05-19T04:04:32.372Z,10.77
2019-05-19T04:05:32.349Z,10.73
2019-05-19T04:06:32.342Z,10.78
2019-05-19T04:07:32.322Z,10.84
2019-05-19T04:08:32.332Z,10.86
2019-05-19T04:09:32.335Z,10.81
2019-05-19T04:10:32.296Z,10.71
2019-05-19T04:11:32.292Z,10.70
2019-05-19T04:12:32.285Z,10.66
2019-05-19T04:13:32.542Z,10.71
2019-05-19T04:14:32.243Z,10.70
2019-05-19T04:15:32.311Z,10.74
2019-05-19T04:16:32.222Z,10.76
2019-05-19T04:17:32.221Z,10.78
2019-05-19T04:18:32.206Z,10.83
2019-05-19T04:19:32.195Z,10.91
2019-05-19T04:20:32.182Z,10.98
2019-05-19T04:21:47.455Z,11.03
2019-05-19T04:22:33.161Z,11.14
2019-05-19T04:23:32.165Z,11.21
2019-05-19T04:24:32.141Z,11.28
2019-05-19T04:25:32.410Z,11.32
2019-05-19T04:26:32.118Z,11.35
2019-05-19T04:27:32.141Z,11.29
2019-05-19T04:28:32.090Z,11.21
2019-05-19T04:29:32.080Z,11.19
2019-05-19T04:30:32.081Z,11.20
2019-05-19T04:31:32.070Z,11.20
2019-05-19T04:32:32.134Z,11.25
2019-05-19T04:33:32.109Z,11.31
2019-05-19T04:34:32.030Z,11.32
2019-05-19T04:35:32.073Z,11.34
2019-05-19T04:36:32.030Z,11.34
2019-05-19T04:37:32.351Z,11.34
2019-05-19T04:38:32.170Z,11.36
2019-05-19T04:39:32.132Z,11.43
2019-05-19T04:40:31.960Z,11.52
2019-05-19T04:41:31.955Z,11.59
2019-05-19T04:42:31.951Z,11.61
2019-05-19T04:43:32.045Z,11.65
2019-05-19T04:44:32.008Z,11.75
2019-05-19T04:45:31.968Z,11.85
2019-05-19T04:46:31.922Z,11.85
2019-05-19T04:47:31.898Z,11.83
2019-05-19T04:48:31.888Z,11.85
2019-05-19T04:49:32.177Z,11.77
2019-05-19T04:50:31.878Z,11.72
2019-05-19T04:51:31.889Z,11.65
2019-05-19T04:52:31.849Z,11.67
2019-05-19T04:53:31.837Z,11.68
2019-05-19T04:54:31.818Z,11.75
2019-05-19T04:55:31.810Z,11.83
2019-05-19T04:56:32.098Z,11.90
2019-05-19T04:57:32.600Z,11.90
2019-05-19T04:58:31.776Z,11.93
2019-05-19T04:59:31.767Z,11.90
2019-05-19T05:00:31.755Z,11.96
2019-05-19T05:01:31.748Z,12.01
2019-05-19T05:02:31.745Z,12.08
2019-05-19T05:03:32.041Z,12.19
2019-05-19T05:04:31.729Z,12.26
2019-05-19T05:05:31.706Z,12.31
2019-05-19T05:06:31.688Z,12.38
2019-05-19T05:07:31.709Z,12.41
2019-05-19T05:08:31.688Z,12.45
2019-05-19T05:09:31.710Z,12.49
2019-05-19T05:10:31.657Z,12.56
2019-05-19T05:11:31.644Z,12.60
2019-05-19T05:12:31.632Z,12.63
2019-05-19T05:13:31.617Z,12.67
2019-05-19T05:14:31.609Z,12.70
2019-05-19T05:15:32.336Z,12.75
2019-05-19T05:16:31.885Z,12.75
2019-05-19T05:17:31.577Z,12.77
2019-05-19T05:18:31.581Z,12.78
2019-05-19T05:19:31.573Z,12.81
2019-05-19T05:20:31.546Z,12.87
2019-05-19T05:21:31.596Z,12.92
2019-05-19T05:22:31.529Z,12.96
2019-05-19T05:23:31.796Z,13.03
2019-05-19T05:24:31.508Z,13.09
2019-05-19T05:25:31.507Z,13.14
2019-05-19T05:26:31.494Z,13.20
2019-05-19T05:27:31.515Z,13.22
2019-05-19T05:28:31.457Z,13.27
2019-05-19T05:29:31.450Z,13.30
2019-05-19T05:30:31.455Z,13.36
2019-05-19T05:31:31.434Z,13.38
2019-05-19T05:32:31.426Z,13.41
2019-05-19T05:33:31.483Z,13.40
2019-05-19T05:34:31.434Z,13.17
2019-05-19T05:35:31.395Z,13.02
2019-05-19T05:36:31.665Z,12.93
2019-05-19T05:37:31.366Z,12.97
2019-05-19T05:38:31.355Z,13.00
2019-05-19T05:39:31.375Z,13.03
2019-05-19T05:40:31.335Z,13.09
2019-05-19T05:41:31.317Z,13.22
2019-05-19T05:42:32.086Z,13.37
2019-05-19T05:43:31.295Z,13.40
2019-05-19T05:44:31.302Z,13.52
2019-05-19T05:45:31.331Z,13.54
2019-05-19T05:46:31.264Z,13.46
2019-05-19T05:47:31.254Z,13.46
2019-05-19T05:48:31.535Z,13.58
2019-05-19T05:49:31.232Z,13.61
2019-05-19T05:50:31.216Z,13.67
2019-05-19T05:51:33.024Z,13.69
2019-05-19T05:52:38.622Z,13.70
2019-05-19T05:53:32.184Z,13.76
2019-05-19T05:54:31.175Z,13.84
2019-05-19T05:55:31.185Z,13.89
2019-05-19T05:56:31.163Z,14.07
2019-05-19T05:57:31.257Z,14.25
2019-05-19T05:58:31.135Z,14.42
2019-05-19T05:59:31.131Z,14.39
2019-05-19T06:00:31.395Z,14.43
2019-05-19T06:01:31.157Z,14.42
2019-05-19T06:02:31.084Z,14.44
2019-05-19T06:03:31.245Z,14.49
2019-05-19T06:04:31.068Z,14.44
2019-05-19T06:05:31.055Z,14.44
2019-05-19T06:06:31.843Z,14.42
2019-05-19T06:07:31.041Z,14.44
2019-05-19T06:08:31.664Z,14.47
2019-05-19T06:09:31.073Z,14.49
2019-05-19T06:10:31.003Z,14.53
2019-05-19T06:11:30.993Z,14.54
2019-05-19T06:12:31.284Z,14.61
2019-05-19T06:13:30.973Z,14.71
2019-05-19T06:14:31.733Z,14.80
2019-05-19T06:15:31.004Z,14.81
2019-05-19T06:16:30.944Z,14.81
2019-05-19T06:17:31.630Z,14.84
2019-05-19T06:18:30.922Z,14.94
2019-05-19T06:19:31.626Z,14.99
2019-05-19T06:20:30.897Z,15.06
2019-05-19T06:21:30.923Z,15.13
2019-05-19T06:22:31.624Z,15.27
2019-05-19T06:23:30.913Z,15.36
2019-05-19T06:24:32.133Z,15.39
2019-05-19T06:25:31.535Z,15.43
2019-05-19T06:26:30.834Z,15.51
2019-05-19T06:27:30.874Z,15.46
2019-05-19T06:28:30.813Z,15.41
2019-05-19T06:29:30.809Z,15.43
2019-05-19T06:30:30.800Z,15.46
2019-05-19T06:31:31.272Z,15.51
2019-05-19T06:32:30.772Z,15.49
2019-05-19T06:33:30.801Z,15.52
2019-05-19T06:34:30.744Z,15.60
2019-05-19T06:35:30.742Z,15.70
2019-05-19T06:36:30.723Z,15.82
2019-05-19T06:37:30.730Z,15.93
2019-05-19T06:38:31.103Z,16.01
2019-05-19T06:39:30.752Z,16.07
2019-05-19T06:40:30.691Z,16.11
2019-05-19T06:41:30.672Z,16.12
2019-05-19T06:42:30.794Z,16.09
2019-05-19T06:43:30.662Z,16.14
2019-05-19T06:44:30.674Z,16.23
2019-05-19T06:45:31.020Z,16.23
2019-05-19T06:46:30.612Z,16.35
2019-05-19T06:47:30.602Z,16.42
2019-05-19T06:48:30.602Z,16.50
2019-05-19T06:49:30.590Z,16.50
2019-05-19T06:50:34.827Z,16.53
2019-05-19T06:51:30.902Z,16.58
2019-05-19T06:52:30.562Z,16.58
2019-05-19T06:53:30.543Z,16.65
2019-05-19T06:54:30.550Z,16.71
2019-05-19T06:55:30.547Z,16.73
2019-05-19T06:56:30.513Z,16.75
2019-05-19T06:57:30.544Z,16.83
2019-05-19T06:58:30.774Z,16.96
2019-05-19T06:59:30.479Z,16.99
2019-05-19T07:00:30.472Z,17.03
2019-05-19T07:01:30.475Z,17.08
2019-05-19T07:02:30.481Z,17.15
2019-05-19T07:03:30.483Z,17.25
2019-05-19T07:04:30.421Z,17.35
2019-05-19T07:05:30.412Z,17.54
2019-05-19T07:06:30.403Z,17.67
2019-05-19T07:07:30.421Z,17.79
2019-05-19T07:08:30.392Z,17.94
2019-05-19T07:09:30.465Z,18.00
2019-05-19T07:10:30.362Z,18.10
2019-05-19T07:11:30.637Z,18.28
2019-05-19T07:12:30.340Z,18.49
2019-05-19T07:13:30.331Z,18.62
2019-05-19T07:14:30.322Z,18.80
2019-05-19T07:15:30.361Z,18.91
2019-05-19T07:16:30.312Z,18.90
2019-05-19T07:17:30.322Z,19.13
2019-05-19T07:18:30.272Z,19.33
2019-05-19T07:19:30.271Z,19.48
2019-05-19T07:20:30.850Z,19.50
2019-05-19T07:21:30.292Z,19.54
2019-05-19T07:22:30.231Z,19.72
2019-05-19T07:23:30.223Z,19.70
2019-05-19T07:24:30.211Z,19.73
2019-05-19T07:25:30.210Z,19.83
2019-05-19T07:26:30.191Z,20.09
2019-05-19T07:27:30.212Z,20.13
2019-05-19T07:28:30.182Z,20.08
2019-05-19T07:29:30.441Z,20.15
2019-05-19T07:30:30.166Z,20.31
2019-05-19T07:31:30.144Z,20.23
2019-05-19T07:32:30.131Z,20.25
2019-05-19T07:33:30.161Z,20.24
2019-05-19T07:34:30.133Z,20.39
2019-05-19T07:35:30.103Z,20.42
2019-05-19T07:36:30.132Z,20.46
2019-05-19T07:37:30.074Z,20.56
2019-05-19T07:38:30.067Z,20.71
2019-05-19T07:39:30.102Z,20.96
2019-05-19T07:40:30.042Z,21.17
2019-05-19T07:41:31.388Z,21.36
2019-05-19T07:42:30.821Z,21.56
2019-05-19T07:43:30.828Z,21.66
2019-05-19T07:44:30.000Z,21.94
2019-05-19T07:45:30.042Z,22.22
2019-05-19T07:46:29.987Z,22.38
2019-05-19T07:47:29.981Z,22.44
2019-05-19T07:48:29.968Z,22.44
2019-05-19T07:49:30.789Z,22.41
2019-05-19T07:50:29.953Z,22.29
2019-05-19T07:51:29.993Z,22.29
2019-05-19T07:52:29.924Z,22.25
2019-05-19T07:53:42.269Z,22.35
2019-05-19T07:54:30.891Z,22.35
2019-05-19T07:55:29.883Z,22.49
2019-05-19T07:56:29.873Z,22.82
2019-05-19T07:57:31.170Z,22.89
2019-05-19T07:58:29.855Z,22.93
2019-05-19T07:59:29.832Z,23.04
2019-05-19T08:00:29.835Z,23.11
2019-05-19T08:01:29.828Z,23.19
2019-05-19T08:02:29.859Z,23.26
2019-05-19T08:03:29.912Z,23.38
2019-05-19T08:04:29.792Z,23.39
2019-05-19T08:05:29.802Z,23.35
2019-05-19T08:06:29.779Z,23.29
2019-05-19T08:07:29.753Z,23.24
2019-05-19T08:08:29.782Z,23.32
2019-05-19T08:09:29.763Z,23.42
2019-05-19T08:10:31.003Z,23.47
2019-05-19T08:11:29.729Z,23.46
2019-05-19T08:12:29.702Z,23.60
2019-05-19T08:13:29.682Z,23.65
2019-05-19T08:14:29.693Z,23.71
2019-05-19T08:15:29.714Z,23.97
2019-05-19T08:16:29.685Z,24.23
2019-05-19T08:17:29.987Z,24.61
2019-05-19T08:18:29.634Z,24.88
2019-05-19T08:19:29.623Z,24.79
2019-05-19T08:20:29.612Z,24.71
2019-05-19T08:21:29.653Z,24.80
2019-05-19T08:22:29.593Z,24.71
2019-05-19T08:23:29.599Z,24.90
2019-05-19T08:24:30.017Z,25.15
2019-05-19T08:25:29.630Z,25.42
2019-05-19T08:26:29.551Z,25.47
2019-05-19T08:27:29.642Z,25.53
2019-05-19T08:28:29.536Z,25.35
2019-05-19T08:29:29.537Z,24.92
2019-05-19T08:30:29.536Z,25.06
2019-05-19T08:31:29.550Z,25.31
2019-05-19T08:32:29.494Z,25.07
2019-05-19T08:33:30.229Z,25.13
2019-05-19T08:34:29.473Z,25.15
2019-05-19T08:35:29.454Z,25.28
2019-05-19T08:36:29.550Z,25.43
2019-05-19T08:37:29.734Z,25.64
2019-05-19T08:38:29.414Z,25.57
2019-05-19T08:39:29.476Z,25.57
2019-05-19T08:40:29.481Z,25.54
2019-05-19T08:41:29.903Z,25.54
2019-05-19T08:42:29.387Z,25.74
2019-05-19T08:43:29.379Z,26.08
2019-05-19T08:44:29.650Z,26.21
2019-05-19T08:45:29.414Z,26.06
2019-05-19T08:46:29.334Z,25.86
2019-05-19T08:47:29.325Z,25.65
2019-05-19T08:48:29.338Z,25.77
2019-05-19T08:49:29.986Z,25.97
2019-05-19T08:50:29.293Z,26.17
2019-05-19T08:51:29.356Z,26.17
2019-05-19T08:52:29.286Z,26.50
2019-05-19T08:53:29.255Z,26.79
2019-05-19T08:54:29.245Z,26.95
2019-05-19T08:55:29.342Z,26.81
2019-05-19T08:56:30.809Z,26.80
2019-05-19T08:57:29.284Z,26.54
2019-05-19T08:58:29.215Z,26.57
2019-05-19T08:59:29.377Z,26.76
2019-05-19T09:00:29.188Z,26.58
2019-05-19T09:01:29.177Z,26.69
2019-05-19T09:02:29.445Z,26.89
2019-05-19T09:03:31.949Z,27.02
2019-05-19T09:04:30.945Z,27.26
2019-05-19T09:05:29.128Z,27.06
2019-05-19T09:06:29.131Z,27.13
2019-05-19T09:07:29.121Z,27.17
2019-05-19T09:08:29.946Z,27.24
2019-05-19T09:09:29.148Z,27.31
2019-05-19T09:10:29.078Z,27.31
2019-05-19T09:11:29.076Z,27.19
2019-05-19T09:12:29.065Z,27.28
2019-05-19T09:13:29.048Z,27.29
2019-05-19T09:14:29.327Z,27.85
2019-05-19T09:15:29.096Z,28.32
2019-05-19T09:16:29.026Z,28.38
2019-05-19T09:17:29.546Z,28.47
2019-05-19T09:18:29.008Z,28.46
2019-05-19T09:19:28.986Z,28.17
2019-05-19T09:20:28.977Z,28.32
2019-05-19T09:21:29.084Z,28.73
2019-05-19T09:22:28.995Z,28.62
2019-05-19T09:23:28.968Z,28.82
2019-05-19T09:24:30.988Z,28.80
2019-05-19T09:25:28.934Z,28.66
2019-05-19T09:26:29.307Z,28.93
2019-05-19T09:27:29.798Z,28.60
2019-05-19T09:28:28.930Z,28.81
2019-05-19T09:29:28.936Z,28.40
2019-05-19T09:30:28.868Z,27.62
2019-05-19T09:31:29.461Z,27.94
2019-05-19T09:32:29.459Z,28.32
2019-05-19T09:33:29.159Z,28.62
2019-05-19T09:34:28.849Z,28.65
2019-05-19T09:35:28.818Z,28.87
2019-05-19T09:36:28.810Z,29.03
2019-05-19T09:37:28.807Z,29.13
2019-05-19T09:38:28.788Z,29.07
2019-05-19T09:39:28.818Z,29.66
2019-05-19T09:40:28.781Z,30.27
2019-05-19T09:41:28.769Z,30.33
2019-05-19T09:42:28.788Z,30.19
2019-05-19T09:43:28.759Z,30.24
2019-05-19T09:44:28.792Z,30.59
2019-05-19T09:45:28.773Z,30.78
2019-05-19T09:46:29.066Z,30.68
2019-05-19T09:47:28.699Z,30.87
2019-05-19T09:48:28.696Z,31.04
2019-05-19T09:49:28.673Z,30.34
2019-05-19T09:50:28.681Z,29.72
2019-05-19T09:51:28.710Z,29.70
2019-05-19T09:52:29.407Z,29.37
2019-05-19T09:53:28.661Z,29.38
2019-05-19T09:54:28.639Z,29.33
2019-05-19T09:55:28.610Z,30.15
2019-05-19T09:56:28.600Z,30.12
2019-05-19T09:57:28.643Z,29.93
2019-05-19T09:58:28.571Z,30.14
2019-05-19T09:59:28.579Z,29.87
2019-05-19T10:00:28.569Z,29.87
2019-05-19T10:01:29.254Z,30.31
2019-05-19T10:02:28.544Z,30.76
2019-05-19T10:03:28.614Z,30.84
2019-05-19T10:04:28.519Z,30.71
2019-05-19T10:05:29.645Z,30.49
2019-05-19T10:06:28.522Z,30.87
2019-05-19T10:07:28.483Z,31.11
2019-05-19T10:08:28.480Z,30.84
2019-05-19T10:09:28.499Z,31.67
2019-05-19T10:10:28.452Z,31.38
2019-05-19T10:11:28.452Z,31.09
2019-05-19T10:12:29.444Z,31.72
2019-05-19T10:13:28.430Z,31.68
2019-05-19T10:14:28.425Z,31.80
2019-05-19T10:15:28.489Z,32.14
2019-05-19T10:16:29.252Z,32.07
2019-05-19T10:17:28.383Z,32.48
2019-05-19T10:18:28.364Z,32.57
2019-05-19T10:19:28.372Z,31.58
2019-05-19T10:20:28.351Z,31.99
2019-05-19T10:21:29.226Z,31.77
2019-05-19T10:22:28.324Z,31.45
2019-05-19T10:23:28.355Z,32.13
2019-05-19T10:24:28.644Z,32.32
2019-05-19T10:25:28.312Z,32.80
2019-05-19T10:26:28.376Z,32.52
2019-05-19T10:27:29.247Z,32.67
2019-05-19T10:28:29.864Z,32.85
2019-05-19T10:29:28.394Z,32.96
2019-05-19T10:30:28.936Z,33.17
2019-05-19T10:31:28.234Z,32.52
2019-05-19T10:32:29.126Z,32.37
2019-05-19T10:33:28.274Z,32.55
2019-05-19T10:34:28.244Z,32.74
2019-05-19T10:35:28.195Z,33.14
2019-05-19T10:36:28.208Z,33.07
2019-05-19T10:37:28.230Z,32.67
2019-05-19T10:38:28.186Z,32.61
2019-05-19T10:39:28.195Z,32.61
2019-05-19T10:40:28.157Z,33.22
2019-05-19T10:41:28.227Z,32.71
2019-05-19T10:42:28.413Z,32.86
2019-05-19T10:43:28.115Z,32.66
2019-05-19T10:44:28.114Z,31.93
2019-05-19T10:45:29.365Z,30.78
2019-05-19T10:46:28.974Z,30.31
2019-05-19T10:47:28.076Z,31.38
2019-05-19T10:48:28.476Z,32.33
2019-05-19T10:49:28.047Z,32.14
2019-05-19T10:50:28.053Z,32.11
2019-05-19T10:51:28.069Z,32.27
2019-05-19T10:52:28.042Z,32.49
2019-05-19T10:53:28.319Z,32.99
2019-05-19T10:54:28.002Z,33.39
2019-05-19T10:55:36.216Z,33.53
2019-05-19T10:56:29.123Z,32.96
2019-05-19T10:57:28.465Z,32.21
2019-05-19T10:58:27.999Z,32.30
2019-05-19T10:59:27.967Z,32.85
2019-05-19T11:00:28.041Z,33.15
2019-05-19T11:01:27.928Z,33.37
2019-05-19T11:02:27.962Z,32.66
2019-05-19T11:03:28.490Z,32.66
2019-05-19T11:04:28.484Z,32.85
2019-05-19T11:05:28.517Z,33.31
2019-05-19T11:06:28.366Z,33.89
2019-05-19T11:07:28.010Z,33.60
2019-05-19T11:08:30.329Z,33.37
2019-05-19T11:09:27.848Z,33.92
2019-05-19T11:10:28.605Z,34.19
2019-05-19T11:11:27.830Z,34.29
2019-05-19T11:12:27.862Z,34.61
2019-05-19T11:13:27.810Z,33.94
2019-05-19T11:14:27.846Z,32.91
2019-05-19T11:15:27.802Z,33.45
2019-05-19T11:16:27.772Z,33.57
2019-05-19T11:17:27.778Z,33.90
2019-05-19T11:18:27.760Z,34.09
2019-05-19T11:19:27.850Z,33.92
2019-05-19T11:20:27.773Z,33.97
2019-05-19T11:21:27.730Z,34.23
2019-05-19T11:22:27.723Z,34.34
2019-05-19T11:23:27.749Z,34.61
2019-05-19T11:24:27.753Z,34.63
2019-05-19T11:25:34.140Z,34.45
2019-05-19T11:26:28.752Z,35.10
2019-05-19T11:27:27.662Z,35.29
2019-05-19T11:28:27.652Z,35.58
2019-05-19T11:29:27.646Z,35.32
2019-05-19T11:30:27.747Z,34.94
2019-05-19T11:31:27.642Z,35.20
2019-05-19T11:32:28.141Z,33.63
2019-05-19T11:33:27.603Z,33.34
2019-05-19T11:34:27.607Z,33.49
2019-05-19T11:35:27.594Z,33.37
2019-05-19T11:36:27.589Z,33.92
2019-05-19T11:37:27.983Z,33.49
2019-05-19T11:38:27.692Z,32.79
2019-05-19T11:39:27.555Z,32.95
2019-05-19T11:40:27.534Z,32.37
2019-05-19T11:41:27.716Z,32.69
2019-05-19T11:42:28.133Z,32.80
2019-05-19T11:43:27.507Z,33.04
2019-05-19T11:44:27.814Z,33.10
2019-05-19T11:45:27.486Z,34.11
2019-05-19T11:46:27.481Z,35.06
2019-05-19T11:47:27.485Z,34.61
2019-05-19T11:48:27.488Z,33.60
2019-05-19T11:49:27.465Z,32.64
2019-05-19T11:50:27.503Z,32.62
2019-05-19T11:51:27.582Z,32.99
2019-05-19T11:52:28.257Z,33.61
2019-05-19T11:53:28.234Z,34.20
2019-05-19T11:54:27.459Z,33.76
2019-05-19T11:55:27.437Z,32.96
2019-05-19T11:56:27.459Z,33.26
2019-05-19T11:57:34.586Z,33.27
2019-05-19T11:58:27.347Z,33.60
2019-05-19T11:59:28.317Z,33.29
2019-05-19T12:00:27.337Z,32.66
2019-05-19T12:01:27.317Z,32.42
2019-05-19T12:02:27.423Z,32.61
2019-05-19T12:03:27.586Z,33.20
2019-05-19T12:04:27.332Z,33.19
2019-05-19T12:05:27.309Z,32.95
2019-05-19T12:06:38.660Z,33.19
2019-05-19T12:07:28.299Z,33.17
2019-05-19T12:08:27.281Z,33.82
2019-05-19T12:09:27.247Z,34.51
2019-05-19T12:10:27.252Z,34.94
2019-05-19T12:11:27.227Z,34.95
2019-05-19T12:12:27.779Z,33.49
2019-05-19T12:13:27.254Z,32.44
2019-05-19T12:14:27.202Z,31.76
2019-05-19T12:15:27.191Z,31.93
2019-05-19T12:16:27.190Z,33.03
2019-05-19T12:17:27.159Z,33.98
2019-05-19T12:18:27.159Z,34.32
2019-05-19T12:19:27.222Z,35.15
2019-05-19T12:20:27.140Z,35.67
2019-05-19T12:21:27.131Z,35.81
2019-05-19T12:22:27.390Z,35.37
2019-05-19T12:23:27.102Z,35.93
2019-05-19T12:24:27.156Z,36.14
2019-05-19T12:25:27.737Z,36.61
2019-05-19T12:26:27.078Z,36.67
2019-05-19T12:27:27.060Z,36.75
2019-05-19T12:28:27.053Z,36.24
2019-05-19T12:29:27.697Z,33.83
2019-05-19T12:30:27.693Z,32.49
2019-05-19T12:31:27.081Z,31.48
2019-05-19T12:32:27.378Z,30.50
2019-05-19T12:33:27.009Z,29.78
2019-05-19T12:34:27.550Z,29.37
2019-05-19T12:35:26.974Z,28.53
2019-05-19T12:36:27.039Z,27.79
2019-05-19T12:37:27.151Z,27.61
2019-05-19T12:38:27.140Z,27.76
2019-05-19T12:39:27.282Z,27.66
2019-05-19T12:40:27.253Z,27.62
2019-05-19T12:41:28.074Z,27.54
2019-05-19T12:42:27.509Z,27.43
2019-05-19T12:43:27.621Z,27.13
2019-05-19T12:44:27.484Z,26.89
2019-05-19T12:45:27.427Z,26.81
2019-05-19T12:46:26.895Z,26.83
2019-05-19T12:47:27.083Z,27.36
2019-05-19T12:48:26.868Z,29.16
2019-05-19T12:49:26.901Z,30.40
2019-05-19T12:50:26.926Z,30.98
2019-05-19T12:51:27.130Z,30.76
2019-05-19T12:52:28.886Z,30.78
2019-05-19T12:53:26.813Z,31.11